WXM80 ListenWXM80 Stop

You find our weather info also at:

UK Metoffice

WeatherCloud

Weather Underground

Northeastern Weather Network

AWEKAS

Citizen Weather Observer Program (CWOP)

HAMweather, WeatherForYou, PWS Weather


Weather Underground History page Text

Daily Summary for February 28, 2018 Units:  Metric    English   Both
« Previous Day
Next Day »
Daily Weekly Monthly Yearly Custom
  High: Low: Average:
Temperature: 15.2 °C 3.1 °C 8.9 °C
Dew Point: 5.6 °C -1.6 °C 2.1 °C
Humidity: 77 % 42 % 63 %
Wind Speed: 13.2 km/h 0 km/h 5.1 km/h
Wind Gust: 22.2 km/h - -
Wind:- - SSW
Pressure: 1013.8 hPa 1002.3 hPa -
Precipitation: 0 mm    
Historical Graphs
 
 
Tabular Data for February 28, 2018
Time Temperature Dew Point Pressure Wind Wind Speed Wind Gust Humidity Rainfall Rate (Hourly)
00:00 5.6 °C -0.1 °C 1013.8 hPa South 5.3 km/h 11.1 km/h 67 % 0 mm
00:05 5.5 °C -0.3 °C 1013.8 hPa SSW 6.6 km/h 11.1 km/h 66 % 0 mm
00:10 5.5 °C -0.3 °C 1013.8 hPa SW 5.3 km/h 18.5 km/h 66 % 0 mm
00:15 5.5 °C -0.3 °C 1013.8 hPa SSW 9 km/h 14.8 km/h 66 % 0 mm
00:20 5.5 °C -0.3 °C 1013.8 hPa SSW 4.3 km/h 13 km/h 66 % 0 mm
00:25 5.5 °C -0.3 °C 1013.8 hPa WSW 3.9 km/h 8 km/h 66 % 0 mm
00:30 5.5 °C -0.3 °C 1013.8 hPa SSW 5.6 km/h 11.3 km/h 66 % 0 mm
00:35 5.4 °C -0.4 °C 1013.8 hPa South 5 km/h 9.3 km/h 66 % 0 mm
00:40 5.4 °C -0.4 °C 1013.8 hPa SSW 7.9 km/h 14.8 km/h 66 % 0 mm
00:45 5.5 °C -0.3 °C 1013.8 hPa South 8 km/h 13 km/h 66 % 0 mm
00:50 5.5 °C -0.3 °C 1013.8 hPa SW 6.8 km/h 8 km/h 66 % 0 mm
00:56 5.6 °C -0.5 °C 1013.8 hPa SSW 4.8 km/h 14.5 km/h 65 % 0 mm
01:01 5.6 °C -0.5 °C 1013.8 hPa SSW 3.5 km/h 11.1 km/h 65 % 0 mm
01:06 5.6 °C -0.5 °C 1013.8 hPa SW 7.2 km/h 13 km/h 65 % 0 mm
01:11 5.6 °C -0.7 °C 1013.8 hPa SSW 7.1 km/h 13 km/h 64 % 0 mm
01:16 5.6 °C -0.4 °C 1013.8 hPa SW 8.9 km/h 13 km/h 65 % 0 mm
01:21 5.6 °C -0.4 °C 1013.8 hPa WSW 11.1 km/h 18.5 km/h 65 % 0 mm
01:26 5.6 °C -0.7 °C 1013.8 hPa SSW 7.7 km/h 11.1 km/h 64 % 0 mm
01:31 5.6 °C -0.4 °C 1013.8 hPa SW 4 km/h 7.4 km/h 65 % 0 mm
01:36 5.6 °C -0.4 °C 1013.8 hPa SSW 7.1 km/h 11.1 km/h 65 % 0 mm
01:41 5.6 °C -0.5 °C 1013.8 hPa SSW 6.9 km/h 9.7 km/h 65 % 0 mm
01:46 5.6 °C -0.5 °C 1013.8 hPa SSW 9.8 km/h 16.7 km/h 65 % 0 mm
01:51 5.6 °C -0.5 °C 1013.8 hPa South 6.1 km/h 14.5 km/h 65 % 0 mm
01:56 5.5 °C -0.6 °C 1013.8 hPa SSW 7.2 km/h 13 km/h 65 % 0 mm
02:01 5.5 °C -0.6 °C 1013.8 hPa SSW 5 km/h 9.7 km/h 65 % 0 mm
02:06 5.5 °C -0.6 °C 1013.8 hPa SSW 5 km/h 9.3 km/h 65 % 0 mm
02:11 5.4 °C -0.4 °C 1013.8 hPa South 1.9 km/h 5.6 km/h 66 % 0 mm
02:16 5.4 °C -0.6 °C 1013.4 hPa SW 4.5 km/h 16.7 km/h 65 % 0 mm
02:21 5.4 °C -0.6 °C 1013.4 hPa SSW 2.9 km/h 5.6 km/h 65 % 0 mm
02:26 5.4 °C -0.7 °C 1013.4 hPa SSW 7.6 km/h 11.1 km/h 65 % 0 mm
02:31 5.3 °C -0.7 °C 1013.4 hPa SSW 3.9 km/h 5.6 km/h 65 % 0 mm
02:37 5.3 °C -0.8 °C 1013.4 hPa South 2.9 km/h 8 km/h 65 % 0 mm
02:42 5.2 °C -0.8 °C 1013.4 hPa SSW 4.8 km/h 6.4 km/h 65 % 0 mm
02:47 5.2 °C -0.7 °C 1013.1 hPa SW 3.7 km/h 5.6 km/h 66 % 0 mm
02:52 5.1 °C -0.7 °C 1013.1 hPa SSW 2.3 km/h 9.3 km/h 66 % 0 mm
02:57 5.1 °C -0.8 °C 1013.1 hPa SSW 1.4 km/h 3.7 km/h 66 % 0 mm
03:02 5 °C -0.8 °C 1013.1 hPa SSW 1 km/h 5.6 km/h 66 % 0 mm
03:07 4.9 °C -0.9 °C 1013.1 hPa SW 3.4 km/h 5.6 km/h 66 % 0 mm
03:12 4.8 °C -1 °C 1013.1 hPa SSW 3.7 km/h 6.4 km/h 66 % 0 mm
03:17 4.7 °C -1.1 °C 1012.8 hPa SSW 4.2 km/h 9.3 km/h 66 % 0 mm
03:22 4.7 °C -1.2 °C 1012.8 hPa SSW 5.5 km/h 11.3 km/h 66 % 0 mm
03:27 4.6 °C -1.2 °C 1012.8 hPa SSW 4 km/h 7.4 km/h 66 % 0 mm
03:32 4.6 °C -1.3 °C 1012.8 hPa SSW 4.5 km/h 6.4 km/h 66 % 0 mm
03:37 4.5 °C -1.3 °C 1012.8 hPa SSW 2.9 km/h 5.6 km/h 66 % 0 mm
03:42 4.4 °C -1.3 °C 1012.8 hPa SSW 6.3 km/h 8 km/h 66 % 0 mm
03:47 4.4 °C -1.4 °C 1012.8 hPa SSW 5.1 km/h 7.4 km/h 66 % 0 mm
03:52 4.3 °C -1.4 °C 1012.4 hPa SSW 2.1 km/h 5.6 km/h 66 % 0 mm
03:57 4.3 °C -1.4 °C 1012.4 hPa South 0.8 km/h 7.4 km/h 66 % 0 mm
04:02 4.3 °C -1.5 °C 1012.4 hPa SW 3.1 km/h 5.6 km/h 66 % 0 mm
04:07 4.3 °C -1.3 °C 1012.4 hPa SSW 2.1 km/h 5.6 km/h 67 % 0 mm
04:13 4.2 °C -1.4 °C 1012.8 hPa SW 3.2 km/h 4.8 km/h 67 % 0 mm
04:18 4.2 °C -1.4 °C 1012.8 hPa SSW 1.8 km/h 5.6 km/h 67 % 0 mm
04:23 4.2 °C -1.4 °C 1012.8 hPa SSW 0.6 km/h 1.9 km/h 67 % 0 mm
04:28 4.1 °C -1.5 °C 1012.8 hPa SSW 0.3 km/h 3.7 km/h 67 % 0 mm
04:33 4.1 °C -1.5 °C 1012.8 hPa Calm   1.9 km/h 67 % 0 mm
04:38 3.9 °C -1.6 °C 1012.8 hPa SSW 0.3 km/h 3.7 km/h 67 % 0 mm
04:43 3.9 °C -1.5 °C 1012.8 hPa SSW 0.2 km/h 1.9 km/h 68 % 0 mm
04:48 3.8 °C -1.6 °C 1012.8 hPa Calm   3.7 km/h 68 % 0 mm
04:53 3.7 °C -1.4 °C 1012.4 hPa Calm     69 % 0 mm
04:58 3.6 °C -1.6 °C 1012.4 hPa SSW 0.8 km/h 3.7 km/h 69 % 0 mm
05:03 3.6 °C -1.6 °C 1012.4 hPa SSW 1.1 km/h 4.8 km/h 69 % 0 mm
05:08 3.4 °C -1.5 °C 1012.4 hPa SSW 2.7 km/h 5.6 km/h 70 % 0 mm
05:13 3.4 °C -1.4 °C 1012.4 hPa SSW 3.5 km/h 7.4 km/h 71 % 0 mm
05:18 3.4 °C -1.4 °C 1012.4 hPa SSW 1.9 km/h 3.7 km/h 71 % 0 mm
05:23 3.3 °C -1.4 °C 1012.4 hPa SSW 2.7 km/h 5.6 km/h 71 % 0 mm
05:28 3.3 °C -1.4 °C 1012.4 hPa SSW 2.4 km/h 5.6 km/h 71 % 0 mm
05:33 3.3 °C -1.2 °C 1012.4 hPa SSW 1.6 km/h 3.7 km/h 72 % 0 mm
05:38 3.3 °C -1.3 °C 1012.4 hPa Calm     72 % 0 mm
05:44 3.3 °C -1.3 °C 1012.4 hPa SSW 0.3 km/h 1.9 km/h 72 % 0 mm
05:48 3.3 °C -1.3 °C 1012.4 hPa Calm     72 % 0 mm
05:53 3.2 °C -1.2 °C 1012.4 hPa Calm     73 % 0 mm
05:59 3.2 °C -1.2 °C 1012.1 hPa Calm     73 % 0 mm
06:04 3.2 °C -1.2 °C 1012.4 hPa Calm     73 % 0 mm
06:09 3.2 °C -1.2 °C 1012.1 hPa SSW 0.3 km/h 3.7 km/h 73 % 0 mm
06:14 3.2 °C -1 °C 1012.1 hPa SSW 1.6 km/h 5.6 km/h 74 % 0 mm
06:19 3.1 °C -1.1 °C 1012.1 hPa SSW 0.3 km/h 3.7 km/h 74 % 0 mm
06:24 3.1 °C -0.9 °C 1012.1 hPa SSW 0.5 km/h 5.6 km/h 75 % 0 mm
06:29 3.1 °C -0.9 °C 1011.7 hPa SSW 0.6 km/h 3.7 km/h 75 % 0 mm
06:34 3.1 °C -0.9 °C 1011.7 hPa SSW 2.1 km/h 5.6 km/h 75 % 0 mm
06:39 3.1 °C -0.8 °C 1011.7 hPa WSW 0.8 km/h 5.6 km/h 76 % 0 mm
06:44 3.1 °C -0.6 °C 1011.7 hPa SW 1.3 km/h 5.6 km/h 77 % 0 mm
06:49 3.2 °C -0.5 °C 1011.7 hPa South 0.3 km/h 3.7 km/h 77 % 0 mm
06:54 3.2 °C -0.4 °C 1011.4 hPa SSW 1.8 km/h 7.4 km/h 77 % 0 mm
06:59 3.3 °C -0.3 °C 1011.4 hPa SSW 5.5 km/h 11.1 km/h 77 % 0 mm
07:04 3.5 °C -0.2 °C 1011.7 hPa SW 1.6 km/h 5.6 km/h 77 % 0 mm
07:09 3.7 °C -0.2 °C 1011.4 hPa SW 3.5 km/h 9.3 km/h 76 % 0 mm
07:14 3.8 °C 0 °C 1011.4 hPa SW 1.1 km/h 5.6 km/h 76 % 0 mm
07:19 4 °C -0.1 °C 1011.4 hPa South 1.6 km/h 5.6 km/h 75 % 0 mm
07:24 4.1 °C -0.1 °C 1011.4 hPa SW 3.9 km/h 7.4 km/h 74 % 0 mm
07:29 4.2 °C -0.2 °C 1011.7 hPa SW 5.5 km/h 11.3 km/h 73 % 0 mm
07:34 4.4 °C -0.2 °C 1011.4 hPa SSW 3.5 km/h 11.1 km/h 72 % 0 mm
07:39 4.5 °C -0.1 °C 1011.4 hPa South 5.6 km/h 5.6 km/h 72 % 0 mm
07:45 4.6 °C -0.2 °C 1011.4 hPa SSW 3.2 km/h 8 km/h 71 % 0 mm
07:50 4.7 °C -0.3 °C 1011.7 hPa SSW 7.2 km/h 13 km/h 70 % 0 mm
07:55 4.9 °C -0.1 °C 1011.7 hPa SSW 7.7 km/h 14.8 km/h 70 % 0 mm
08:00 5.1 °C -0.2 °C 1011.7 hPa SSW 5.8 km/h 11.1 km/h 69 % 0 mm
08:05 5.3 °C -0.2 °C 1011.4 hPa SSW 5.8 km/h 11.3 km/h 68 % 0 mm
08:10 5.5 °C 0.1 °C 1011.4 hPa SSW 7.1 km/h 13 km/h 68 % 0 mm
08:15 5.8 °C 0.3 °C 1011.4 hPa SSW 6.4 km/h 9.7 km/h 68 % 0 mm
08:20 6.1 °C 0.6 °C 1011.1 hPa South 4.7 km/h 9.3 km/h 68 % 0 mm
08:25 6.3 °C 0.7 °C 1011.1 hPa SSW 5.8 km/h 9.3 km/h 67 % 0 mm
08:30 6.6 °C 0.2 °C 1011.4 hPa SSW 9.2 km/h 11.1 km/h 64 % 0 mm
08:35 6.7 °C 0.2 °C 1011.4 hPa SSW 10.6 km/h 18.5 km/h 63 % 0 mm
08:40 6.9 °C 0.4 °C 1011.4 hPa SSW 7.1 km/h 11.3 km/h 63 % 0 mm
08:45 7.1 °C 0.3 °C 1011.4 hPa South 11.7 km/h 18.5 km/h 62 % 0 mm
08:50 7.3 °C 0.3 °C 1011.4 hPa SSW 3.5 km/h 7.4 km/h 61 % 0 mm
08:55 7.6 °C 0.5 °C 1011.1 hPa SSW 5.6 km/h 11.1 km/h 61 % 0 mm
09:00 7.8 °C 0.5 °C 1011.1 hPa SSE 5.8 km/h 16.7 km/h 60 % 0 mm
09:05 8 °C 0.9 °C 1011.1 hPa SSW 7.6 km/h 11.3 km/h 61 % 0 mm
09:10 8.4 °C 0.8 °C 1011.1 hPa SSW 8.7 km/h 16.7 km/h 59 % 0 mm
09:15 8.8 °C 1.2 °C 1011.1 hPa WSW 7.2 km/h 12.9 km/h 59 % 0 mm
09:21 9.2 °C 1.4 °C 1010.7 hPa SW 6.4 km/h 9.3 km/h 58 % 0 mm
09:26 9.6 °C 1 °C 1010.7 hPa SSW 9.7 km/h 19.3 km/h 55 % 0 mm
09:31 9.9 °C 1.3 °C 1010.7 hPa SW 8 km/h 14.5 km/h 55 % 0 mm
09:36 10.2 °C 1.3 °C 1010.7 hPa SW 8 km/h 14.5 km/h 54 % 0 mm
09:41 10.5 °C 1.6 °C 1010.7 hPa WSW 8.5 km/h 9.3 km/h 54 % 0 mm
09:46 10.6 °C 1.1 °C 1010.7 hPa SW 11.3 km/h 20.9 km/h 52 % 0 mm
09:51 10.7 °C 1.2 °C 1010.7 hPa SW 11.3 km/h 19.3 km/h 52 % 0 mm
09:56 10.6 °C 1.1 °C 1010.4 hPa SSW 4.8 km/h 19.3 km/h 52 % 0 mm
10:01 10.6 °C 1.1 °C 1010.4 hPa West 3.1 km/h 18.5 km/h 52 % 0 mm
10:06 10.6 °C 1.2 °C 1010 hPa SW 8.5 km/h 16.7 km/h 52 % 0 mm
10:11 10.7 °C 1.3 °C 1010 hPa SW 8 km/h 13 km/h 52 % 0 mm
10:16 10.9 °C 1.1 °C 1010 hPa WSW 10.3 km/h 18.5 km/h 51 % 0 mm
10:21 11 °C 0.9 °C 1010 hPa SSW 5.8 km/h 14.8 km/h 50 % 0 mm
10:26 11.2 °C 1.7 °C 1009.7 hPa SW 10.1 km/h 18.5 km/h 52 % 0 mm
10:31 11.4 °C 1.4 °C 1009.7 hPa SW 10.3 km/h 18.5 km/h 50 % 0 mm
10:36 11.7 °C 1.6 °C 1009.7 hPa SSE 5.6 km/h 11.1 km/h 50 % 0 mm
10:41 12.1 °C 2.2 °C 1009.7 hPa South 7.9 km/h 14.5 km/h 51 % 0 mm
10:46 12.4 °C 2.2 °C 1009.7 hPa SW 9 km/h 11.3 km/h 50 % 0 mm
10:51 12.7 °C 2.2 °C 1009.7 hPa South 4.5 km/h 7.4 km/h 49 % 0 mm
10:56 12.9 °C 1.9 °C 1009.4 hPa South 2.1 km/h 18.5 km/h 47 % 0 mm
11:01 13.2 °C 2.2 °C 1009.4 hPa SSW 8.5 km/h 18.5 km/h 47 % 0 mm
11:06 13.4 °C 1.7 °C 1009.4 hPa SW 8.7 km/h 18.5 km/h 45 % 0 mm
11:11 13.5 °C 2.1 °C 1009 hPa SW 12.6 km/h 22.2 km/h 46 % 0 mm
11:16 13.6 °C 2.2 °C 1009 hPa WNW 7.2 km/h 8 km/h 46 % 0 mm
11:22 13.8 °C 2.3 °C 1009 hPa SSW 13.2 km/h 16.7 km/h 46 % 0 mm
11:27 14 °C 2.2 °C 1008.7 hPa SSW 5.5 km/h 9.3 km/h 45 % 0 mm
11:32 13.9 °C 1.9 °C 1008.7 hPa SSW 7.7 km/h 20.4 km/h 44 % 0 mm
11:37 13.9 °C 1.8 °C 1008.7 hPa South 6.9 km/h 13 km/h 44 % 0 mm
11:42 13.9 °C 2.8 °C 1008.4 hPa South 11.7 km/h 18.5 km/h 47 % 0 mm
11:47 14 °C 2.2 °C 1008.4 hPa South 6.3 km/h 11.1 km/h 45 % 0 mm
11:52 14 °C 1.9 °C 1008.4 hPa SW 10.8 km/h 16.7 km/h 44 % 0 mm
11:57 13.9 °C 2.4 °C 1008.4 hPa SSW 2.9 km/h 7.4 km/h 46 % 0 mm
12:02 14 °C 2.2 °C 1008 hPa SW 6.6 km/h 18.5 km/h 45 % 0 mm
12:07 14.1 °C 2.3 °C 1008 hPa WSW 6.3 km/h 13 km/h 45 % 0 mm
12:12 14.1 °C 2 °C 1008 hPa SSW 6.1 km/h 13 km/h 44 % 0 mm
12:17 14.1 °C 2 °C 1008 hPa SW 8.4 km/h 18.5 km/h 44 % 0 mm
12:22 14.3 °C 2.5 °C 1007.7 hPa South 9.3 km/h 11.3 km/h 45 % 0 mm
12:27 14.4 °C 2.6 °C 1007.3 hPa WSW 4.3 km/h 12.9 km/h 45 % 0 mm
12:32 14.6 °C 2.7 °C 1007.3 hPa SW 2.6 km/h 5.6 km/h 45 % 0 mm
12:38 14.8 °C 2.7 °C 1007.3 hPa SSW 4.2 km/h 9.3 km/h 44 % 0 mm
12:43 15 °C 2.8 °C 1007.3 hPa SSE 4 km/h 9.3 km/h 44 % 0 mm
12:48 15.2 °C 3.1 °C 1007 hPa WSW 8 km/h 17.7 km/h 44 % 0 mm
12:53 15.2 °C 2.7 °C 1007 hPa SSW 5.5 km/h 11.1 km/h 43 % 0 mm
12:58 15.2 °C 2.4 °C 1007 hPa SSE 4.5 km/h 9.3 km/h 42 % 0 mm
13:03 15.2 °C 3 °C 1007 hPa SW 12.9 km/h 16.7 km/h 44 % 0 mm
13:08 15.1 °C 2.2 °C 1006.7 hPa SSW 6.6 km/h 16.7 km/h 42 % 0 mm
13:13 15 °C 3.2 °C 1006.7 hPa SSW 12.6 km/h 18.5 km/h 45 % 0 mm
13:18 15 °C 2.8 °C 1006.7 hPa SSW 5.3 km/h 11.3 km/h 44 % 0 mm
13:23 15 °C 2.5 °C 1006.3 hPa South 2.4 km/h 9.3 km/h 43 % 0 mm
13:28 15 °C 2.8 °C 1006.3 hPa South 6.9 km/h 7.4 km/h 44 % 0 mm
13:33 14.9 °C 3.1 °C 1006.3 hPa South 8 km/h 11.3 km/h 45 % 0 mm
13:38 14.9 °C 2.8 °C 1006.3 hPa SW 10.9 km/h 16.7 km/h 44 % 0 mm
13:44 14.8 °C 3.3 °C 1006 hPa South 6.8 km/h 14.5 km/h 46 % 0 mm
13:49 14.7 °C 3.4 °C 1006 hPa SSW 2.6 km/h 14.8 km/h 47 % 0 mm
13:54 14.7 °C 3.8 °C 1006 hPa South 4.7 km/h 9.3 km/h 48 % 0 mm
13:59 14.8 °C 3.9 °C 1006 hPa SW 4.7 km/h 11.1 km/h 48 % 0 mm
14:04 14.8 °C 3.6 °C 1005.6 hPa SW 11.1 km/h 16.7 km/h 47 % 0 mm
14:09 14.8 °C 3.6 °C 1005.6 hPa South 9.2 km/h 16.7 km/h 47 % 0 mm
14:14 14.7 °C 3.8 °C 1005.6 hPa South 6 km/h 14.5 km/h 48 % 0 mm
14:19 14.4 °C 3.6 °C 1005.3 hPa South 9 km/h 14.8 km/h 48 % 0 mm
14:24 14.3 °C 3.8 °C 1005.3 hPa South 5 km/h 14.8 km/h 49 % 0 mm
14:29 14.2 °C 3.9 °C 1005.3 hPa SSE 7.7 km/h 11.1 km/h 50 % 0 mm
14:34 14 °C 3.7 °C 1005.3 hPa South 9.5 km/h 18.5 km/h 50 % 0 mm
14:39 13.8 °C 3.8 °C 1005 hPa South 1.4 km/h 9.3 km/h 51 % 0 mm
14:44 13.6 °C 3.6 °C 1005 hPa SE 7.9 km/h 18.5 km/h 51 % 0 mm
14:49 13.4 °C 3.4 °C 1005 hPa South 5.8 km/h 9.3 km/h 51 % 0 mm
14:54 13.3 °C 3.9 °C 1005 hPa South 7.1 km/h 12.9 km/h 53 % 0 mm
15:00 13.3 °C 3.6 °C 1005 hPa SSW 4.5 km/h 9.7 km/h 52 % 0 mm
15:05 13.2 °C 3.6 °C 1004.6 hPa SSW 5 km/h 7.4 km/h 52 % 0 mm
15:10 13.2 °C 3.6 °C 1004.6 hPa South 6.8 km/h 11.1 km/h 52 % 0 mm
15:15 13.2 °C 3.5 °C 1004.6 hPa SSE 2.6 km/h 8 km/h 52 % 0 mm
15:16 13.2 °C 3.8 °C 1004.6 hPa SE 5.6 km/h 11.3 km/h 53 % 0 mm
15:21 13.2 °C 3.8 °C 1004.6 hPa SE 6.3 km/h 9.3 km/h 53 % 0 mm
15:26 13.2 °C 3.8 °C 1004.6 hPa SSE 6.1 km/h 11.1 km/h 53 % 0 mm
15:31 13.1 °C 3.7 °C 1004.6 hPa SSE 3.7 km/h 11.3 km/h 53 % 0 mm
15:36 13 °C 3.9 °C 1004.6 hPa SE 6.6 km/h 9.7 km/h 54 % 0 mm
15:41 12.9 °C 3.8 °C 1004.6 hPa South 0.3 km/h 3.7 km/h 54 % 0 mm
15:46 12.9 °C 3.8 °C 1004.6 hPa South 5.3 km/h 9.3 km/h 54 % 0 mm
15:51 12.9 °C 3.8 °C 1004.6 hPa South 6.3 km/h 9.3 km/h 54 % 0 mm
15:56 12.8 °C 4 °C 1004.3 hPa SSE 4.8 km/h 12.9 km/h 55 % 0 mm
16:01 12.8 °C 3.9 °C 1004.3 hPa SSE 5.1 km/h 8 km/h 55 % 0 mm
16:07 12.7 °C 3.9 °C 1004.3 hPa South 3.9 km/h 12.9 km/h 55 % 0 mm
16:12 12.7 °C 3.8 °C 1004.3 hPa South 8.2 km/h 13 km/h 55 % 0 mm
16:17 12.6 °C 4 °C 1004.3 hPa SSE 7.7 km/h 13 km/h 56 % 0 mm
16:22 12.4 °C 4.2 °C 1003.9 hPa ESE 6.1 km/h 11.3 km/h 57 % 0 mm
16:27 12.4 °C 4.1 °C 1003.9 hPa SSE 2.7 km/h 6.4 km/h 57 % 0 mm
16:32 12.3 °C 4.3 °C 1003.9 hPa South 7.9 km/h 11.1 km/h 58 % 0 mm
16:37 12.3 °C 4.2 °C 1003.9 hPa South 1.9 km/h 5.6 km/h 58 % 0 mm
16:42 12.2 °C 4.2 °C 1003.9 hPa SSE 5.1 km/h 9.7 km/h 58 % 0 mm
16:47 12.2 °C 4.4 °C 1003.6 hPa South 2.1 km/h 5.6 km/h 59 % 0 mm
16:52 12.1 °C 4.3 °C 1003.6 hPa SSE 4.8 km/h 6.4 km/h 59 % 0 mm
16:57 12 °C 4.4 °C 1003.6 hPa SSE 3.5 km/h 7.4 km/h 60 % 0 mm
17:02 11.8 °C 4.3 °C 1003.6 hPa South 2.9 km/h 11.1 km/h 60 % 0 mm
17:07 11.7 °C 4.4 °C 1003.6 hPa South 7.2 km/h 8 km/h 61 % 0 mm
17:13 11.6 °C 4.5 °C 1003.6 hPa SSE 8.4 km/h 14.8 km/h 62 % 0 mm
17:18 11.3 °C 4.3 °C 1003.6 hPa SSE 3.2 km/h 7.4 km/h 62 % 0 mm
17:23 11.3 °C 4.5 °C 1003.3 hPa SSE 7.2 km/h 14.5 km/h 63 % 0 mm
17:28 11.1 °C 4.5 °C 1003.6 hPa SSW 5.8 km/h 9.7 km/h 64 % 0 mm
17:33 10.8 °C 4.5 °C 1003.3 hPa South 3.2 km/h 5.6 km/h 65 % 0 mm
17:38 10.7 °C 4.3 °C 1003.6 hPa South 3.5 km/h 9.7 km/h 65 % 0 mm
17:43 10.6 °C 4.4 °C 1003.6 hPa South 3.1 km/h 11.1 km/h 66 % 0 mm
17:48 10.3 °C 4.3 °C 1003.6 hPa SSE 4.3 km/h 7.4 km/h 66 % 0 mm
17:53 10.1 °C 4.3 °C 1003.6 hPa South 7.6 km/h 13 km/h 67 % 0 mm
17:58 9.9 °C 4.3 °C 1003.6 hPa SSE 6.9 km/h 9.3 km/h 68 % 0 mm
18:03 9.7 °C 4.3 °C 1003.6 hPa SSW 7.9 km/h 11.3 km/h 69 % 0 mm
18:08 9.5 °C 4.3 °C 1003.6 hPa South 9.2 km/h 16.1 km/h 70 % 0 mm
18:13 9.3 °C 4.1 °C 1003.6 hPa South 4.3 km/h 9.3 km/h 70 % 0 mm
18:18 9.2 °C 4.2 °C 1003.6 hPa South 4 km/h 11.1 km/h 71 % 0 mm
18:23 9.1 °C 4.1 °C 1003.6 hPa SW 6.1 km/h 13 km/h 71 % 0 mm
18:28 8.9 °C 4.2 °C 1003.6 hPa South 1.1 km/h 11.1 km/h 72 % 0 mm
18:33 8.8 °C 4.3 °C 1003.6 hPa SSW 5.3 km/h 11.1 km/h 73 % 0 mm
18:38 8.7 °C 4.2 °C 1003.6 hPa South 3.5 km/h 11.1 km/h 73 % 0 mm
18:44 8.6 °C 4.2 °C 1003.6 hPa SSW 5.1 km/h 11.1 km/h 74 % 0 mm
18:49 8.5 °C 4.1 °C 1003.6 hPa SSW 7.6 km/h 9.7 km/h 74 % 0 mm
18:54 8.4 °C 4.2 °C 1003.3 hPa SSW 4 km/h 9.3 km/h 75 % 0 mm
18:59 8.3 °C 4.1 °C 1003.3 hPa South 7.2 km/h 16.7 km/h 75 % 0 mm
19:04 8.2 °C 4.2 °C 1003.3 hPa SSW 6.8 km/h 11.1 km/h 76 % 0 mm
19:09 8.1 °C 4.1 °C 1003.3 hPa SSW 5.1 km/h 9.7 km/h 76 % 0 mm
19:14 8.1 °C 4.1 °C 1003.3 hPa SSW 5 km/h 11.3 km/h 76 % 0 mm
19:19 8.1 °C 4.3 °C 1003.3 hPa SW 5 km/h 9.7 km/h 77 % 0 mm
19:24 8.1 °C 4.3 °C 1003.3 hPa SSW 8.2 km/h 11.3 km/h 77 % 0 mm
19:29 8.1 °C 4.3 °C 1003.3 hPa SW 4.2 km/h 9.3 km/h 77 % 0 mm
19:34 8.1 °C 4.3 °C 1003.6 hPa SSW 5.8 km/h 11.1 km/h 77 % 0 mm
19:39 8.1 °C 4.3 °C 1003.6 hPa SSW 8.4 km/h 9.7 km/h 77 % 0 mm
19:44 8.2 °C 4.4 °C 1003.6 hPa SSW 5.8 km/h 9.3 km/h 77 % 0 mm
19:50 8.2 °C 4.2 °C 1003.6 hPa SSW 6.8 km/h 13 km/h 76 % 0 mm
19:55 8.3 °C 4.3 °C 1003.3 hPa SW 5 km/h 9.7 km/h 76 % 0 mm
20:00 8.4 °C 4.4 °C 1002.9 hPa SW 3.7 km/h 9.3 km/h 76 % 0 mm
20:05 8.5 °C 4.5 °C 1002.9 hPa SSW 5.5 km/h 9.3 km/h 76 % 0 mm
20:10 8.6 °C 4.4 °C 1002.9 hPa SSW 4.7 km/h 11.3 km/h 75 % 0 mm
20:15 8.7 °C 4.5 °C 1002.9 hPa SW 7.4 km/h 11.1 km/h 75 % 0 mm
20:20 8.8 °C 4.6 °C 1003.3 hPa South 6.9 km/h 11.1 km/h 75 % 0 mm
20:25 8.9 °C 4.5 °C 1003.3 hPa South 6.9 km/h 13 km/h 74 % 0 mm
20:30 9.1 °C 4.7 °C 1002.9 hPa SSW 5.1 km/h 11.1 km/h 74 % 0 mm
20:35 9.2 °C 4.8 °C 1003.3 hPa SSW 6.8 km/h 8 km/h 74 % 0 mm
20:40 9.3 °C 4.9 °C 1003.3 hPa South 3.2 km/h 5.6 km/h 74 % 0 mm
20:45 9.3 °C 4.7 °C 1003.3 hPa SSW 7.6 km/h 11.1 km/h 73 % 0 mm
20:50 9.4 °C 4.8 °C 1003.3 hPa SW 2.9 km/h 7.4 km/h 73 % 0 mm
20:55 9.4 °C 4.8 °C 1003.3 hPa SW 4.2 km/h 7.4 km/h 73 % 0 mm
21:00 9.5 °C 4.9 °C 1003.3 hPa South 5.5 km/h 8 km/h 73 % 0 mm
21:05 9.5 °C 4.9 °C 1003.3 hPa SW 5.6 km/h 7.4 km/h 73 % 0 mm
21:10 9.6 °C 4.8 °C 1003.3 hPa SSW 4.8 km/h 11.1 km/h 72 % 0 mm
21:16 9.7 °C 4.8 °C 1002.9 hPa SSW 4.8 km/h 8 km/h 72 % 0 mm
21:21 9.8 °C 4.9 °C 1002.9 hPa SSW 4.8 km/h 11.3 km/h 72 % 0 mm
21:26 9.9 °C 5.1 °C 1002.6 hPa SSW 4.8 km/h 11.3 km/h 72 % 0 mm
21:31 9.9 °C 5.3 °C 1002.6 hPa SSW 8 km/h 12.9 km/h 73 % 0 mm
21:36 10.1 °C 5.4 °C 1002.9 hPa SSW 3.2 km/h 16.1 km/h 73 % 0 mm
21:41 10.1 °C 5.2 °C 1002.9 hPa SSW 3.2 km/h 11.3 km/h 72 % 0 mm
21:46 10.1 °C 5.3 °C 1002.9 hPa SW 2.7 km/h 7.4 km/h 72 % 0 mm
21:51 10.2 °C 5.3 °C 1002.6 hPa SSW 4.8 km/h 8 km/h 72 % 0 mm
21:56 10.2 °C 5.4 °C 1002.6 hPa SSW 4.8 km/h 11.3 km/h 72 % 0 mm
22:01 10.3 °C 5.2 °C 1002.6 hPa South 2.7 km/h 14.8 km/h 71 % 0 mm
22:06 10.3 °C 5.2 °C 1002.6 hPa SW 3.2 km/h 14.5 km/h 71 % 0 mm
22:11 10.3 °C 5.1 °C 1002.6 hPa SSW 3.2 km/h 11.3 km/h 70 % 0 mm
22:16 10.4 °C 5.2 °C 1002.6 hPa SSW 1.6 km/h 11.3 km/h 70 % 0 mm
22:21 10.4 °C 5 °C 1002.6 hPa SW 5.6 km/h 6.4 km/h 69 % 0 mm
22:26 10.5 °C 5.1 °C 1002.3 hPa SW 3.2 km/h 8 km/h 69 % 0 mm
22:31 10.6 °C 5.1 °C 1002.6 hPa SW 3.2 km/h 11.3 km/h 69 % 0 mm
22:36 10.6 °C 5.2 °C 1002.6 hPa SW 3.2 km/h 12.9 km/h 69 % 0 mm
22:41 10.7 °C 5.2 °C 1002.6 hPa SW 3.2 km/h 8 km/h 69 % 0 mm
22:46 10.7 °C 5.3 °C 1002.6 hPa SSW 1.6 km/h 8 km/h 69 % 0 mm
22:51 10.7 °C 5.1 °C 1002.9 hPa SSW 3.2 km/h 8 km/h 68 % 0 mm
22:56 10.8 °C 5.3 °C 1002.9 hPa SW 2.1 km/h 7.4 km/h 69 % 0 mm
23:01 10.8 °C 5.3 °C 1002.6 hPa SSW 1.1 km/h 9.3 km/h 69 % 0 mm
23:06 10.7 °C 5.3 °C 1002.6 hPa SSW 2.9 km/h 6.4 km/h 69 % 0 mm
23:11 10.7 °C 5.3 °C 1002.6 hPa SW 4.2 km/h 6.4 km/h 69 % 0 mm
23:16 10.7 °C 5.2 °C 1002.6 hPa WSW 2.6 km/h 9.7 km/h 69 % 0 mm
23:21 10.7 °C 5.2 °C 1002.6 hPa SSW 4.2 km/h 7.4 km/h 69 % 0 mm
23:26 10.6 °C 5.2 °C 1002.6 hPa South 6.1 km/h 9.3 km/h 69 % 0 mm
23:31 10.6 °C 5.3 °C 1002.6 hPa SW 4.5 km/h 5.6 km/h 70 % 0 mm
23:36 10.6 °C 5.3 °C 1002.6 hPa SSW 1 km/h 8 km/h 70 % 0 mm
23:41 10.5 °C 5.4 °C 1002.6 hPa SSW 2.3 km/h 5.6 km/h 71 % 0 mm
23:46 10.5 °C 5.4 °C 1002.6 hPa SW 5.3 km/h 9.3 km/h 71 % 0 mm
23:51 10.4 °C 5.6 °C 1002.3 hPa SSW 5.5 km/h 9.7 km/h 72 % 0 mm
23:57 10.4 °C 5.6 °C 1002.6 hPa SSW 4.2 km/h 8 km/h 72 % 0 mm
Crab Meadow Weather
Compliments of Weather Underground - 3 mb

Script developed by  Jim McMurry - jmcmurry@mwt.net Adapted for the template by  Wim van der Kuil - Leuven-Template.eu

Weather Terms: Flood Warning - General or areal flooding of streets, low-lying areas, urban storm drains, creeks and small streams is occurring, imminent, or highly likely. Flood warnings are issued for flooding that occurs more than 6 hours after the excessive rainfall. These warnings are issued on a county by county basis by the local Weather Forecast Office in Upton and are generally in effect for 6 to 12 hours.